Amanda Park, Washington
Current Conditions -  °F | °C
As of 7:53 AM on Saturday 25 Oct 2014 (Local Time) from KHQM Reporting Station
Light Rain Light Rain  
Wind Chill: 51°   Ceiling: 9000
Heat Index: 51°   Visibility: 7mi
Dew Point: 50°   Wind: 14mph
Humidity: 96%   Direction: 60°ENE
Pressure: 29.46"   Gusts: NA
Location:  47.46°N, 123.89°W
Report Text: KHQM 251453Z AUTO 06012KT 7SM -RA BKN090 OVC110 11/10 A2946 RMK AO2 SLP979 P0002 60014 T01060100 58000
Loading
Personal Weather Stations






























Interactive Weather Map
Tropical Storm Tracking
New forecast layout! Learn more

10-Day Weather Forecast

Advertisements
Track Severe Weather on mobile